D/T METAR WX W/DIR W/SPE G/SPE TEMP DEWP
15/01/19 19:30 EIDL 151930Z 21020G30KT 9999 FEW021 OVC026 10/07 Q1003 SSW (210°) 23.0mph 34.5mph 10°C 7°C
15/01/19 19:00 EIDL 151900Z 22021KT 9999 SCT019 OVC027 10/07 Q1003 SW (220°) 24.2mph 10°C 7°C
15/01/19 18:30 EIDL 151830Z 22019KT 9999 FEW020 10/08 Q1004 SW (220°) 21.9mph 10°C 8°C
15/01/19 18:00 EIDL 151800Z 22020KT CAVOK 10/08 Q1004 SW (220°) 23.0mph 10°C 8°C
15/01/19 17:30 EIDL 151730Z 22020KT 9999 FEW015 BKN017 09/08 Q1005 SW (220°) 23.0mph 9°C 8°C
15/01/19 17:00 EIDL 151700Z 21020KT 9999 -RA FEW009 09/08 Q1006 -RA SSW (210°) 23.0mph 9°C 8°C
15/01/19 16:30 EIDL 151630Z 22023G33KT 7000 -RA FEW012 SCT017 09/08 Q1006 -RA SW (220°) 26.5mph 38.0mph 9°C 8°C
15/01/19 16:00 EIDL 151600Z 21019KT 9999 OVC030 10/08 Q1006 SSW (210°) 21.9mph 10°C 8°C
15/01/19 15:30 EIDL 151530Z 22021KT 9999 FEW010 SCT016 BKN040 09/08 Q1007 SW (220°) 24.2mph 9°C 8°C
15/01/19 15:00 EIDL 151500Z 23018G29KT 9999 -RA FEW010 SCT016 OVC019 10/08 Q1007 -RA SW (230°) 20.7mph 33.4mph 10°C 8°C
15/01/19 14:30 EIDL 151430Z 22017KT 9999 FEW013 BKN020 BKN035 10/08 Q1008 SW (220°) 19.6mph 10°C 8°C
15/01/19 14:00 EIDL 151400Z 22022KT 9999 SCT010 BKN019 OVC048 10/08 Q1008 SW (220°) 25.3mph 10°C 8°C
15/01/19 13:30 EIDL 151330Z 22022KT 3500 -DZ BKN012 OVC017 10/08 Q1008 -DZ SW (220°) 25.3mph 10°C 8°C
15/01/19 13:00 EIDL 151300Z 21018KT 9999 BKN019 OVC030 10/08 Q1009 SSW (210°) 20.7mph 10°C 8°C
15/01/19 12:30 EIDL 151230Z 22018KT 9999 FEW016 BKN019 BKN032 10/07 Q1010 SW (220°) 20.7mph 10°C 7°C
15/01/19 12:00 EIDL 151200Z 21016KT 9999 BKN035 BKN045 10/07 Q1011 SSW (210°) 18.4mph 10°C 7°C
15/01/19 11:00 EIDL 151100Z 22018KT 9999 OVC045 10/08 Q1011 SW (220°) 20.7mph 10°C 8°C
15/01/19 10:30 EIDL 151030Z 22017KT 9999 FEW017 OVC046 10/08 Q1012 SW (220°) 19.6mph 10°C 8°C
15/01/19 10:00 EIDL 151000Z 22019KT 9999 FEW015 OVC049 10/08 Q1012 SW (220°) 21.9mph 10°C 8°C
15/01/19 09:30 EIDL 150930Z 22019KT 9999 BKN015 OVC047 10/08 Q1012 SW (220°) 21.9mph 10°C 8°C
15/01/19 09:00 EIDL 150900Z 22020KT 9999 BKN015 OVC048 10/08 Q1012 SW (220°) 23.0mph 10°C 8°C
15/01/19 08:30 EIDL 150830Z 22020KT 9999 SCT015 OVC048 10/08 Q1012 SW (220°) 23.0mph 10°C 8°C
15/01/19 08:00 EIDL 150800Z 22019KT 9999 OVC048 10/08 Q1013 SW (220°) 21.9mph 10°C 8°C
15/01/19 07:30 EIDL 150730Z 22016KT 9999 OVC046 10/08 Q1013 SW (220°) 18.4mph 10°C 8°C
14/01/19 19:30 EIDL 141930Z 25016KT 9999 SCT011 BKN013 OVC033 09/08 Q1018 WSW (250°) 18.4mph 9°C 8°C
14/01/19 19:00 EIDL 141900Z 26014KT 9999 FEW009 BKN012 OVC025 09/08 Q1019 W (260°) 16.1mph 9°C 8°C
14/01/19 18:30 EIDL 141830Z 25012KT 9999 OVC009 09/08 Q1019 WSW (250°) 13.8mph 9°C 8°C
14/01/19 18:00 EIDL 141800Z 25015KT 9000 OVC014 09/08 Q1019 WSW (250°) 17.3mph 9°C 8°C
14/01/19 17:30 EIDL 141730Z 24010KT 9999 SCT014 OVC018 09/08 Q1019 WSW (240°) 11.5mph 9°C 8°C
14/01/19 17:00 EIDL 141700Z 25014KT 5000 -RA BR BKN004 OVC024 09/09 Q1019 -RA BR WSW (250°) 16.1mph 9°C 9°C
14/01/19 16:30 EIDL 141630Z 22017KT 9999 -RA BKN005 OVC015 09/08 Q1019 -RA SW (220°) 19.6mph 9°C 8°C
14/01/19 16:00 EIDL 141600Z 23013KT 3500 -RA BKN007 OVC009 09/08 Q1019 -RA SW (230°) 15.0mph 9°C 8°C
14/01/19 15:00 EIDL 141500Z 23012KT 9999 FEW012 BKN020 OVC027 09/07 Q1020 SW (230°) 13.8mph 9°C 7°C
14/01/19 14:30 EIDL 141430Z 24011KT 9999 -RA BKN011 OVC020 09/08 Q1020 -RA WSW (240°) 12.7mph 9°C 8°C
14/01/19 14:00 EIDL 141400Z 25011KT 9999 SCT005 BKN011 OVC022 08/07 Q1021 WSW (250°) 12.7mph 8°C 7°C
14/01/19 13:30 EIDL 141330Z 23012KT 9999 -RA FEW011 OVC020 09/06 Q1021 -RA SW (230°) 13.8mph 9°C 6°C
14/01/19 13:00 EIDL 141300Z 25012KT 9999 SCT020 BKN025 OVC033 09/05 Q1021 WSW (250°) 13.8mph 9°C 5°C
14/01/19 12:30 EIDL 141230Z 25010KT 9999 BKN030 OVC037 09/04 Q1021 WSW (250°) 11.5mph 9°C 4°C
14/01/19 12:00 EIDL 141200Z 26011KT 9999 BKN035 OVC042 09/03 Q1022 W (260°) 12.7mph 9°C 3°C
14/01/19 11:30 EIDL 141130Z 27015KT 9999 FEW029 BKN040 09/03 Q1022 W (270°) 17.3mph 9°C 3°C
14/01/19 11:00 EIDL 141100Z 28014KT 9999 BKN030 OVC038 09/03 Q1022 W (280°) 16.1mph 9°C 3°C
14/01/19 10:30 EIDL 141030Z 26011KT 9999 FEW032 OVC038 09/04 Q1022 W (260°) 12.7mph 9°C 4°C
14/01/19 10:00 EIDL 141000Z 28010KT 9999 OVC039 09/04 Q1022 W (280°) 11.5mph 9°C 4°C
14/01/19 09:30 EIDL 140930Z 26007KT 8000 FEW026 BKN040 08/05 Q1022 W (260°) 8.1mph 8°C 5°C
14/01/19 09:00 EIDL 140900Z 26007KT 8000 FEW026 BKN040 08/05 Q1022 W (260°) 8.1mph 8°C 5°C
14/01/19 08:30 EIDL 140830Z 28012KT 9999 FEW037 BKN043 08/05 Q1022 W (280°) 13.8mph 8°C 5°C
14/01/19 08:00 EIDL 140800Z 29016KT 9999 BKN042 08/05 Q1022 WNW (290°) 18.4mph 8°C 5°C
14/01/19 07:30 EIDL 140730Z 29013KT 9999 FEW032 BKN041 09/04 Q1021 WNW (290°) 15.0mph 9°C 4°C
13/01/19 21:00 EIDL 132100Z 32022KT 9999 FEW034 BKN046 09/03 Q1019 NW (320°) 25.3mph 9°C 3°C
13/01/19 20:30 EIDL 132030Z 32019KT 9999 -RA OVC033 09/06 Q1018 -RA NW (320°) 21.9mph 9°C 6°C
13/01/19 20:00 EIDL 132000Z 32023KT 9999 OVC033 09/05 Q1018 NW (320°) 26.5mph 9°C 5°C
13/01/19 19:30 EIDL 131930Z 31021KT 9999 -RA SCT030 BKN043 09/04 Q1018 -RA NW (310°) 24.2mph 9°C 4°C
13/01/19 19:00 EIDL 131900Z 32022KT 9999 FEW027 SCT040 OVC045 09/03 Q1018 NW (320°) 25.3mph 9°C 3°C
13/01/19 17:30 EIDL 131730Z 31026G36KT 9999 -RA FEW029 BKN036 09/05 Q1017 -RA NW (310°) 29.9mph 41.4mph 9°C 5°C
13/01/19 17:00 EIDL 131700Z 31024KT 9999 FEW030 OVC047 10/03 Q1017 REDZ NW (310°) 27.6mph 10°C 3°C
13/01/19 16:30 EIDL 131630Z 30023KT 9999 SCT029 BKN037 10/03 Q1016 WNW (300°) 26.5mph 10°C 3°C
13/01/19 16:00 EIDL 131600Z 31023KT 9999 FEW029 BKN047 10/03 Q1016 NW (310°) 26.5mph 10°C 3°C
13/01/19 15:30 EIDL 131530Z 30022KT 9999 FEW034 OVC046 10/03 Q1016 WNW (300°) 25.3mph 10°C 3°C
13/01/19 15:00 EIDL 131500Z 30021KT 9999 FEW039 OVC047 10/04 Q1016 WNW (300°) 24.2mph 10°C 4°C
13/01/19 14:30 EIDL 131430Z 32020KT 9999 FEW029 BKN045 10/03 Q1016 NW (320°) 23.0mph 10°C 3°C
13/01/19 14:00 EIDL 131400Z 30019KT 9999 FEW022 OVC045 10/06 Q1015 WNW (300°) 21.9mph 10°C 6°C
13/01/19 13:00 EIDL 131300Z 31021KT 9000 BKN036 BKN048 10/05 Q1016 NW (310°) 24.2mph 10°C 5°C
13/01/19 12:30 EIDL 131230Z 31021KT 9999 FEW021 BKN036 OVC048 10/05 Q1016 NW (310°) 24.2mph 10°C 5°C
13/01/19 12:00 EIDL 131200Z 29019KT 9000 SCT024 10/06 Q1016 WNW (290°) 21.9mph 10°C 6°C
13/01/19 11:30 EIDL 131130Z 29020KT 9000 -RA OVC023 10/07 Q1015 -RA WNW (290°) 23.0mph 10°C 7°C
13/01/19 11:00 EIDL 131100Z 28021KT 9000 FEW023 BKN032 OVC047 10/08 Q1015 W (280°) 24.2mph 10°C 8°C
13/01/19 10:30 EIDL 131030Z 28023KT 9999 BKN037 11/08 Q1015 W (280°) 26.5mph 11°C 8°C
12/01/19 20:00 EIDL 122000Z 26021KT 9999 BKN008 10/09 Q1021 W (260°) 24.2mph 10°C 9°C
12/01/19 19:30 EIDL 121930Z 26022KT 9999 OVC008 10/09 Q1021 W (260°) 25.3mph 10°C 9°C
12/01/19 19:00 EIDL 121900Z 27023KT 9000 OVC008 10/09 Q1021 W (270°) 26.5mph 10°C 9°C
12/01/19 18:30 EIDL 121830Z 27021KT 7000 BKN007 OVC013 10/09 Q1022 W (270°) 24.2mph 10°C 9°C
12/01/19 18:00 EIDL 121800Z 27022KT 7000 BKN007 OVC013 10/09 Q1022 W (270°) 25.3mph 10°C 9°C
12/01/19 17:30 EIDL 121730Z 27019KT 8000 OVC009 11/09 Q1022 W (270°) 21.9mph 11°C 9°C
12/01/19 17:00 EIDL 121700Z 27021KT 7000 OVC010 11/09 Q1022 W (270°) 24.2mph 11°C 9°C
12/01/19 16:30 EIDL 121630Z 27018KT 6000 FEW010 BKN012 11/09 Q1022 W (270°) 20.7mph 11°C 9°C
12/01/19 16:00 EIDL 121600Z 27019KT 6000 FEW012 11/09 Q1022 W (270°) 21.9mph 11°C 9°C
12/01/19 15:00 EIDL 121500Z 27019KT 7000 SCT017 11/09 Q1022 W (270°) 21.9mph 11°C 9°C
12/01/19 14:30 EIDL 121430Z 28020KT 7000 SCT012 SCT018 11/09 Q1022 W (280°) 23.0mph 11°C 9°C
12/01/19 14:00 EIDL 121400Z 28019KT 7000 OVC012 11/09 Q1022 W (280°) 21.9mph 11°C 9°C
12/01/19 13:30 EIDL 121330Z 27017KT 6000 SCT012 10/09 Q1023 W (270°) 19.6mph 10°C 9°C
12/01/19 13:00 EIDL 121300Z 28020KT 7000 BKN012 10/09 Q1023 W (280°) 23.0mph 10°C 9°C
12/01/19 12:30 EIDL 121230Z 28020KT 8000 BKN010 BKN017 10/09 Q1023 W (280°) 23.0mph 10°C 9°C
12/01/19 12:00 EIDL 121200Z 28020KT 9000 OVC009 10/09 Q1023 W (280°) 23.0mph 10°C 9°C
12/01/19 11:30 EIDL 121130Z 28020KT 8000 OVC009 10/09 Q1023 W (280°) 23.0mph 10°C 9°C
12/01/19 11:00 EIDL 121100Z 28019KT 9999 BKN009 OVC014 10/09 Q1024 W (280°) 21.9mph 10°C 9°C
12/01/19 10:30 EIDL 121030Z 28018KT 8000 SCT009 BKN012 OVC029 10/08 Q1024 W (280°) 20.7mph 10°C 8°C
12/01/19 10:00 EIDL 121000Z 29019KT 9999 FEW014 BKN016 OVC019 10/07 Q1024 WNW (290°) 21.9mph 10°C 7°C
12/01/19 09:30 EIDL 120930Z 29018KT 8000 -RA SCT012 OVC017 09/08 Q1024 -RA WNW (290°) 20.7mph 9°C 8°C
12/01/19 09:00 EIDL 120900Z 29020KT 7000 -RA OVC017 09/08 Q1024 -RA WNW (290°) 23.0mph 9°C 8°C
12/01/19 08:30 EIDL 120830Z 29017KT 9999 BKN019 BKN027 09/06 Q1023 WNW (290°) 19.6mph 9°C 6°C
12/01/19 08:00 EIDL 120800Z 28018KT 9999 SCT026 09/07 Q1023 W (280°) 20.7mph 9°C 7°C
11/01/19 20:00 EIDL 112000Z 23016KT 9999 FEW006 BKN008 OVC015 09/09 Q1027 SW (230°) 18.4mph 9°C 9°C
11/01/19 19:30 EIDL 111930Z 24016KT 9999 OVC007 09/09 Q1028 WSW (240°) 18.4mph 9°C 9°C
11/01/19 19:00 EIDL 111900Z 24016KT 9999 OVC007 09/09 Q1028 WSW (240°) 18.4mph 9°C 9°C
11/01/19 18:30 EIDL 111830Z 24015KT 9000 -RA BKN007 OVC013 09/09 Q1028 -RA WSW (240°) 17.3mph 9°C 9°C
11/01/19 18:00 EIDL 111800Z 26015KT 9999 FEW007 OVC009 09/08 Q1029 W (260°) 17.3mph 9°C 8°C
11/01/19 17:30 EIDL 111730Z 25016KT 9999 FEW007 SCT009 BKN017 09/08 Q1029 WSW (250°) 18.4mph 9°C 8°C
11/01/19 17:00 EIDL 111700Z 25015KT 9999 -RA SCT007 BKN010 09/08 Q1029 REDZ -RA WSW (250°) 17.3mph 9°C 8°C
11/01/19 16:30 EIDL 111630Z 22008KT 9999 OVC027 09/07 Q1029 SW (220°) 9.2mph 9°C 7°C
11/01/19 16:00 EIDL 111600Z 21008KT 9999 BKN029 09/07 Q1029 SSW (210°) 9.2mph 9°C 7°C
11/01/19 15:00 EIDL 111500Z 24011KT 9999 FEW019 OVC028 09/08 Q1030 WSW (240°) 12.7mph 9°C 8°C
11/01/19 14:30 EIDL 111430Z 25009KT 9999 FEW005 SCT014 OVC025 09/09 Q1030 WSW (250°) 10.4mph 9°C 9°C
11/01/19 14:00 EIDL 111400Z 26011KT 9999 -RA SCT005 BKN013 OVC031 09/09 Q1030 -RA W (260°) 12.7mph 9°C 9°C
11/01/19 13:30 EIDL 111330Z 24009KT 9999 FEW021 BKN038 10/09 Q1031 WSW (240°) 10.4mph 10°C 9°C
11/01/19 13:00 EIDL 111300Z 25013KT 5000 RA FEW007 BKN012 OVC019 09/08 Q1031 REDZ RA WSW (250°) 15.0mph 9°C 8°C
11/01/19 12:30 EIDL 111230Z 23010KT 9999 FEW025 BKN030 BKN037 09/08 Q1032 SW (230°) 11.5mph 9°C 8°C
11/01/19 12:00 EIDL 111200Z 23012KT 9999 BKN032 BKN038 09/08 Q1032 SW (230°) 13.8mph 9°C 8°C
11/01/19 11:30 EIDL 111130Z 25009KT 9999 SCT039 BKN048 10/08 Q1032 WSW (250°) 10.4mph 10°C 8°C
11/01/19 11:00 EIDL 111100Z 25008KT 9999 FEW038 BKN047 09/07 Q1033 WSW (250°) 9.2mph 9°C 7°C
11/01/19 10:30 EIDL 111030Z 23006KT 9999 FEW015 BKN040 09/08 Q1033 SW (230°) 6.9mph 9°C 8°C
11/01/19 10:00 EIDL 111000Z 23007KT 9999 BKN040 09/08 Q1033 SW (230°) 8.1mph 9°C 8°C
11/01/19 09:30 EIDL 110930Z 23005KT 9999 FEW007 OVC035 09/08 Q1033 SW (230°) 5.8mph 9°C 8°C
11/01/19 09:00 EIDL 110900Z 24007KT 9999 SCT010 BKN022 BKN039 09/09 Q1033 WSW (240°) 8.1mph 9°C 9°C
11/01/19 08:30 EIDL 110830Z 22007KT 9999 FEW007 OVC041 09/09 Q1033 SW (220°) 8.1mph 9°C 9°C
11/01/19 08:00 EIDL 110800Z 22006KT 9999 OVC041 09/09 Q1032 SW (220°) 6.9mph 9°C 9°C
11/01/19 07:30 EIDL 110730Z 22006KT 9999 FEW036 OVC042 09/09 Q1033 SW (220°) 6.9mph 9°C 9°C
10/01/19 19:30 EIDL 101930Z 32005KT CAVOK 09/08 Q1034 NW (320°) 5.8mph 9°C 8°C
10/01/19 19:00 EIDL 101900Z 32004KT CAVOK 09/08 Q1034 NW (320°) 4.6mph 9°C 8°C
10/01/19 18:30 EIDL 101830Z 31005KT CAVOK 09/09 Q1034 NW (310°) 5.8mph 9°C 9°C
10/01/19 18:00 EIDL 101800Z 30005KT CAVOK 09/09 Q1034 WNW (300°) 5.8mph 9°C 9°C
10/01/19 17:30 EIDL 101730Z 30005KT CAVOK 10/09 Q1034 WNW (300°) 5.8mph 10°C 9°C
10/01/19 17:00 EIDL 101700Z 30006KT CAVOK 09/09 Q1033 WNW (300°) 6.9mph 9°C 9°C
10/01/19 16:30 EIDL 101630Z 31006KT CAVOK 10/09 Q1033 NW (310°) 6.9mph 10°C 9°C
10/01/19 16:00 EIDL 101600Z 30007KT CAVOK 10/09 Q1033 WNW (300°) 8.1mph 10°C 9°C
10/01/19 15:30 EIDL 101530Z 30007KT CAVOK 10/09 Q1033 WNW (300°) 8.1mph 10°C 9°C
10/01/19 15:00 EIDL 101500Z 25003KT CAVOK 10/08 Q1033 WSW (250°) 3.5mph 10°C 8°C
10/01/19 14:30 EIDL 101430Z 23001KT CAVOK 10/08 Q1033 SW (230°) 1.2mph 10°C 8°C
10/01/19 14:00 EIDL 101400Z 00000KT CAVOK 10/08 Q1033 N (0°) 10°C 8°C
10/01/19 13:30 EIDL 101330Z 21002KT CAVOK 10/09 Q1033 SSW (210°) 2.3mph 10°C 9°C
10/01/19 13:00 EIDL 101300Z VRB02KT CAVOK 09/09 Q1034 N (0°) 2.3mph 9°C 9°C
10/01/19 12:30 EIDL 101230Z 15002KT CAVOK 09/09 Q1034 SSE (150°) 2.3mph 9°C 9°C
10/01/19 12:00 EIDL 101200Z 17003KT CAVOK 09/08 Q1034 S (170°) 3.5mph 9°C 8°C
10/01/19 11:30 EIDL 101130Z 17004KT CAVOK 09/08 Q1034 S (170°) 4.6mph 9°C 8°C
10/01/19 11:00 EIDL 101100Z 17003KT CAVOK 09/08 Q1034 S (170°) 3.5mph 9°C 8°C
10/01/19 10:30 EIDL 101030Z 16003KT CAVOK 08/08 Q1034 SSE (160°) 3.5mph 8°C 8°C
10/01/19 10:00 EIDL 101000Z 16002KT CAVOK 08/08 Q1034 SSE (160°) 2.3mph 8°C 8°C
10/01/19 09:30 EIDL 100930Z 16005KT CAVOK 08/08 Q1034 SSE (160°) 5.8mph 8°C 8°C
10/01/19 09:00 EIDL 100900Z 17004KT CAVOK 08/08 Q1033 S (170°) 4.6mph 8°C 8°C
10/01/19 08:30 EIDL 100830Z 16003KT CAVOK 08/08 Q1033 SSE (160°) 3.5mph 8°C 8°C
10/01/19 08:00 EIDL 100800Z 15002KT CAVOK 08/08 Q1033 SSE (150°) 2.3mph 8°C 8°C
10/01/19 07:30 EIDL 100730Z VRB02KT CAVOK 08/08 Q1033 N (0°) 2.3mph 8°C 8°C
9/01/19 20:30 EIDL 092030Z 00000KT 0500 FG VV002 10/10 Q1033 FG N (0°) 10°C 10°C
9/01/19 19:30 EIDL 091930Z 31004KT 1400 BR VV003 10/10 Q1033 BR NW (310°) 4.6mph 10°C 10°C
9/01/19 19:00 EIDL 091900Z 28005KT 1900 BR VV003 10/10 Q1033 REDZ BR W (280°) 5.8mph 10°C 10°C